Time;durP1;ratioP1;P1;durP2;ratioP2;P2;SDS_P1;SDS_P2;PMS_P1;PMS_P2;Temp;Humidity;BMP_temperature;BMP_pressure;BME280_temperature;BME280_humidity;BME280_pressure;Samples;Min_cycle;Max_cycle;Signal;HPM_P1;HPM_P2
2021/09/26 00:01:26;;;;;;;17.63;6.25;;;19.00;99.90;;;;;;5094561;28;20393;-75
2021/09/26 00:03:52;;;;;;;7.53;5.05;;;19.00;99.90;;;;;;5092113;28;20043;-76
2021/09/26 00:06:18;;;;;;;10.73;5.25;;;18.90;99.90;;;;;;5093332;28;20417;-75
2021/09/26 00:08:44;;;;;;;5.70;4.47;;;18.90;99.90;;;;;;5092674;28;20032;-75
2021/09/26 00:11:10;;;;;;;10.30;4.72;;;18.90;99.90;;;;;;5086847;28;20016;-75
2021/09/26 00:13:38;;;;;;;5.97;4.28;;;19.00;99.90;;;;;;5073766;28;20074;-76
2021/09/26 00:16:06;;;;;;;7.22;4.63;;;19.00;99.90;;;;;;5073510;28;20024;-75
2021/09/26 00:18:33;;;;;;;6.35;4.10;;;19.00;99.90;;;;;;5074384;28;20509;-76
2021/09/26 00:20:58;;;;;;;14.80;5.07;;;19.00;99.90;;;;;;5072307;28;20087;-76
2021/09/26 00:23:27;;;;;;;13.40;4.80;;;19.00;99.90;;;;;;5072396;28;20040;-76
2021/09/26 00:25:54;;;;;;;10.40;4.55;;;18.90;99.90;;;;;;5071783;28;20405;-76
2021/09/26 00:28:20;;;;;;;4.93;3.58;;;18.90;99.90;;;;;;5072674;28;20430;-76
2021/09/26 00:30:47;;;;;;;11.52;4.10;;;18.90;99.90;;;;;;5073115;28;20501;-76
2021/09/26 00:33:13;;;;;;;4.13;3.60;;;18.90;99.90;;;;;;5073749;28;20036;-76
2021/09/26 00:35:39;;;;;;;4.97;4.45;;;18.90;99.90;;;;;;5073571;28;20447;-76
2021/09/26 00:38:05;;;;;;;7.75;4.13;;;18.90;99.90;;;;;;5074026;28;20028;-76
2021/09/26 00:40:32;;;;;;;5.32;4.15;;;18.90;99.90;;;;;;5072324;28;20028;-76
2021/09/26 00:42:58;;;;;;;6.18;4.35;;;18.90;99.90;;;;;;5071510;28;20033;-76
2021/09/26 00:45:23;;;;;;;4.45;4.03;;;18.90;99.90;;;;;;5072459;28;20028;-76
2021/09/26 00:47:49;;;;;;;4.70;3.75;;;19.00;99.90;;;;;;5071617;28;20024;-76
2021/09/26 00:50:16;;;;;;;4.88;4.03;;;18.90;99.90;;;;;;5072493;28;20039;-76
2021/09/26 00:52:45;;;;;;;9.07;4.35;;;18.90;99.90;;;;;;5073035;28;20198;-76
2021/09/26 00:55:12;;;;;;;11.57;5.05;;;18.80;99.90;;;;;;5072395;28;20331;-76
2021/09/26 00:57:40;;;;;;;7.22;4.32;;;18.60;99.90;;;;;;5071099;28;20119;-76
2021/09/26 01:00:07;;;;;;;4.72;4.05;;;18.70;99.90;;;;;;5072123;28;20029;-76
2021/09/26 01:02:33;;;;;;;7.65;4.78;;;18.60;99.90;;;;;;5073501;28;20160;-76
2021/09/26 01:04:59;;;;;;;5.72;4.45;;;18.60;99.90;;;;;;5072420;28;20462;-76
2021/09/26 01:07:49;;;;;;;4.82;4.13;;;18.60;99.90;;;;;;5071715;28;20486;-76
2021/09/26 01:11:00;;;;;;;10.32;4.13;;;18.60;99.90;;;;;;5073379;28;20094;-76
2021/09/26 01:13:38;;;;;;;6.00;4.50;;;18.70;99.90;;;;;;5014179;28;20036;-76
2021/09/26 01:16:19;;;;;;;4.25;3.85;;;18.60;99.90;;;;;;5030951;28;20402;-76
2021/09/26 01:18:54;;;;;;;7.25;4.68;;;18.60;99.90;;;;;;5059567;28;20036;-76
2021/09/26 01:21:35;;;;;;;5.35;3.50;;;18.60;99.90;;;;;;5071844;28;20035;-76
2021/09/26 01:24:19;;;;;;;7.60;4.28;;;18.50;99.90;;;;;;5070683;28;20047;-75
2021/09/26 01:26:59;;;;;;;6.88;4.63;;;18.50;99.90;;;;;;5072075;28;20097;-76
2021/09/26 01:30:12;;;;;;;5.68;4.03;;;18.50;99.90;;;;;;5072787;28;20017;-76
2021/09/26 01:32:41;;;;;;;5.05;3.92;;;18.50;99.90;;;;;;5072735;28;20304;-76
2021/09/26 01:35:10;;;;;;;7.68;4.30;;;18.60;99.90;;;;;;5072506;28;20029;-77
2021/09/26 01:37:48;;;;;;;5.95;4.30;;;18.50;99.90;;;;;;5071540;28;20035;-76
2021/09/26 01:40:21;;;;;;;8.57;4.82;;;18.50;99.90;;;;;;5072250;28;20100;-75
2021/09/26 01:42:55;;;;;;;6.10;4.80;;;18.40;99.90;;;;;;5070607;28;20107;-74
2021/09/26 01:45:33;;;;;;;4.82;4.00;;;18.40;99.90;;;;;;5071208;28;20139;-76
2021/09/26 01:48:10;;;;;;;4.60;3.97;;;18.50;99.90;;;;;;5070100;28;20071;-76
2021/09/26 01:50:36;;;;;;;7.85;4.30;;;18.40;99.90;;;;;;5072364;28;20027;-76
2021/09/26 01:53:05;;;;;;;4.90;4.13;;;18.40;99.90;;;;;;5071370;28;20040;-75
2021/09/26 01:55:31;;;;;;;9.13;5.15;;;18.40;99.90;;;;;;5071931;28;20063;-75
2021/09/26 01:57:58;;;;;;;7.85;4.47;;;18.40;99.90;;;;;;5071435;28;20024;-76
2021/09/26 02:00:24;;;;;;;17.80;4.90;;;18.40;99.90;;;;;;5070292;28;20378;-76
2021/09/26 02:02:51;;;;;;;6.80;5.55;;;18.40;99.90;;;;;;5071772;28;20030;-76
2021/09/26 02:05:18;;;;;;;6.10;4.30;;;18.20;99.90;;;;;;5070622;28;20127;-76
2021/09/26 02:07:47;;;;;;;7.50;4.53;;;18.20;99.90;;;;;;5070045;28;20025;-76
2021/09/26 02:10:17;;;;;;;8.52;5.78;;;18.20;99.90;;;;;;5069791;28;20085;-75
2021/09/26 02:12:42;;;;;;;7.10;4.80;;;18.20;99.90;;;;;;5071215;28;20021;-76
2021/09/26 02:15:14;;;;;;;6.43;4.45;;;18.20;99.90;;;;;;5072038;28;20031;-75
2021/09/26 02:17:46;;;;;;;6.40;4.80;;;18.20;99.90;;;;;;5070487;28;20040;-75
2021/09/26 02:20:16;;;;;;;6.30;4.40;;;18.10;99.90;;;;;;5070574;28;20555;-75
2021/09/26 02:22:43;;;;;;;5.53;4.93;;;18.20;99.90;;;;;;5071334;28;20057;-77
2021/09/26 02:25:10;;;;;;;6.15;4.53;;;18.20;99.90;;;;;;5070221;28;20080;-76
2021/09/26 02:27:37;;;;;;;5.78;4.60;;;18.20;99.90;;;;;;5070570;28;20135;-76
2021/09/26 02:30:05;;;;;;;7.97;4.88;;;18.20;99.90;;;;;;5069579;28;20036;-76
2021/09/26 02:32:31;;;;;;;6.47;5.40;;;18.30;99.90;;;;;;5070023;28;20485;-75
2021/09/26 02:34:57;;;;;;;5.88;5.20;;;18.20;99.90;;;;;;5069294;28;20055;-76
2021/09/26 02:37:22;;;;;;;6.45;5.07;;;18.20;99.90;;;;;;5071752;28;20060;-75
2021/09/26 02:39:49;;;;;;;11.43;5.38;;;18.30;99.90;;;;;;5070900;28;20480;-76
2021/09/26 02:42:34;;;;;;;11.40;6.90;;;18.40;99.90;;;;;;5071831;28;20032;-76
2021/09/26 02:45:15;;;;;;;9.88;7.28;;;18.30;99.90;;;;;;5068794;28;20064;-75
2021/09/26 02:47:52;;;;;;;9.27;6.40;;;18.20;99.90;;;;;;5071088;28;20029;-76
2021/09/26 02:50:19;;;;;;;8.20;5.32;;;18.20;99.90;;;;;;5070911;28;20085;-75
2021/09/26 02:52:45;;;;;;;8.00;4.85;;;18.20;99.90;;;;;;5068983;28;20032;-76
2021/09/26 02:55:13;;;;;;;8.07;5.15;;;18.20;99.90;;;;;;5069901;28;20466;-76
2021/09/26 02:57:39;;;;;;;6.35;5.18;;;18.10;99.90;;;;;;5071004;28;20093;-76
2021/09/26 03:00:07;;;;;;;11.38;5.53;;;18.00;99.90;;;;;;5069149;28;20036;-76
2021/09/26 03:02:34;;;;;;;7.85;5.72;;;18.10;99.90;;;;;;5070809;28;20381;-76
2021/09/26 03:05:00;;;;;;;7.82;5.85;;;18.10;99.90;;;;;;5070433;28;20127;-75
2021/09/26 03:07:26;;;;;;;7.60;5.72;;;18.10;99.90;;;;;;5069751;28;20024;-76
2021/09/26 03:09:52;;;;;;;5.43;4.60;;;18.10;99.90;;;;;;5069137;28;20541;-76
2021/09/26 03:12:20;;;;;;;6.07;5.28;;;18.00;99.90;;;;;;5069648;28;20414;-76
2021/09/26 03:14:46;;;;;;;6.70;5.65;;;18.00;99.90;;;;;;5070492;28;20032;-76
2021/09/26 03:17:12;;;;;;;7.60;6.00;;;18.10;99.90;;;;;;5071118;28;20032;-76
2021/09/26 03:19:38;;;;;;;6.72;5.38;;;18.00;99.90;;;;;;5069688;28;20024;-76
2021/09/26 03:22:06;;;;;;;8.98;5.07;;;18.00;99.90;;;;;;5070086;28;20107;-76
2021/09/26 03:24:32;;;;;;;8.02;5.65;;;18.00;99.90;;;;;;5069500;28;20041;-76
2021/09/26 03:27:03;;;;;;;11.32;6.55;;;17.70;99.90;;;;;;5070538;28;20115;-76
2021/09/26 03:29:32;;;;;;;7.93;5.75;;;17.70;99.90;;;;;;5069712;28;20025;-75
2021/09/26 03:31:59;;;;;;;8.95;5.70;;;17.70;99.90;;;;;;5068929;28;20028;-75
2021/09/26 03:34:24;;;;;;;8.85;6.03;;;17.70;99.90;;;;;;5070751;28;20454;-75
2021/09/26 03:36:50;;;;;;;7.15;5.70;;;17.80;99.90;;;;;;5068898;28;20025;-75
2021/09/26 03:39:16;;;;;;;8.40;5.82;;;17.80;99.90;;;;;;5071111;28;20039;-75
2021/09/26 03:41:41;;;;;;;12.02;6.82;;;17.80;99.90;;;;;;5070809;28;20052;-75
2021/09/26 03:44:07;;;;;;;9.15;6.40;;;17.80;99.90;;;;;;5068639;28;20517;-74
2021/09/26 03:46:32;;;;;;;8.43;6.28;;;17.70;99.90;;;;;;5070717;28;20111;-75
2021/09/26 03:48:58;;;;;;;9.45;7.38;;;17.70;99.90;;;;;;5068966;28;20066;-75
2021/09/26 03:51:24;;;;;;;7.90;6.68;;;17.50;99.90;;;;;;5070588;28;20029;-75
2021/09/26 03:53:49;;;;;;;6.25;5.65;;;17.60;99.90;;;;;;5069630;28;20040;-76
2021/09/26 03:56:15;;;;;;;8.27;6.45;;;17.70;99.90;;;;;;5070613;28;20099;-75
2021/09/26 03:58:41;;;;;;;6.82;6.10;;;17.70;99.90;;;;;;5070750;28;20401;-75
2021/09/26 04:01:06;;;;;;;14.13;6.28;;;17.70;99.90;;;;;;5069923;28;20024;-76
2021/09/26 04:03:32;;;;;;;7.05;6.30;;;17.60;99.90;;;;;;5070804;28;20074;-75
2021/09/26 04:05:58;;;;;;;8.70;6.70;;;17.70;99.90;;;;;;5068684;28;20086;-76
2021/09/26 04:08:23;;;;;;;7.45;6.07;;;17.70;99.90;;;;;;5069294;28;20108;-76
2021/09/26 04:10:49;;;;;;;8.48;6.15;;;17.80;99.90;;;;;;5069850;28;20035;-76
2021/09/26 04:13:15;;;;;;;20.10;7.32;;;17.80;99.90;;;;;;5068267;28;20462;-76
2021/09/26 04:15:40;;;;;;;7.65;6.30;;;17.80;99.90;;;;;;5068814;28;20078;-76
2021/09/26 04:18:06;;;;;;;7.57;6.10;;;17.80;99.90;;;;;;5068403;28;20031;-76
2021/09/26 04:20:32;;;;;;;6.95;5.55;;;17.70;99.90;;;;;;5069181;28;20130;-75
2021/09/26 04:22:57;;;;;;;7.35;6.43;;;17.70;99.90;;;;;;5069859;28;20077;-75
2021/09/26 04:25:23;;;;;;;7.80;6.82;;;17.70;99.90;;;;;;5070137;28;20234;-76
2021/09/26 04:27:49;;;;;;;11.93;6.90;;;17.70;99.90;;;;;;5070682;28;20028;-76
2021/09/26 04:30:15;;;;;;;7.50;6.28;;;17.70;99.90;;;;;;5070386;28;20055;-76
2021/09/26 04:32:40;;;;;;;9.80;6.90;;;17.70;99.90;;;;;;5070159;28;20469;-75
2021/09/26 04:35:07;;;;;;;8.60;6.15;;;17.70;99.90;;;;;;5071838;28;20028;-76
2021/09/26 04:37:32;;;;;;;8.43;6.47;;;17.60;99.90;;;;;;5072237;28;20040;-76
2021/09/26 04:39:58;;;;;;;9.50;5.90;;;17.60;99.90;;;;;;5071897;28;20044;-74
2021/09/26 04:42:24;;;;;;;7.68;5.95;;;17.60;99.90;;;;;;5073907;28;20040;-75
2021/09/26 04:44:50;;;;;;;11.15;7.13;;;17.60;99.90;;;;;;5073408;28;20039;-76
2021/09/26 04:47:16;;;;;;;7.97;6.93;;;17.40;99.90;;;;;;5072166;28;20025;-76
2021/09/26 04:49:41;;;;;;;7.32;6.60;;;17.40;99.90;;;;;;5073620;28;20086;-76
2021/09/26 04:52:07;;;;;;;7.95;6.45;;;17.40;99.90;;;;;;5072793;28;20029;-76
2021/09/26 04:54:33;;;;;;;9.13;7.05;;;17.30;99.90;;;;;;5073611;28;20047;-76
2021/09/26 04:56:58;;;;;;;9.40;7.32;;;17.30;99.90;;;;;;5072624;28;20025;-76
2021/09/26 04:59:24;;;;;;;10.93;7.40;;;17.10;99.90;;;;;;5073744;28;20032;-76
2021/09/26 05:01:51;;;;;;;9.18;8.15;;;17.00;99.90;;;;;;5071902;28;20052;-76
2021/09/26 05:04:17;;;;;;;9.50;8.43;;;16.90;99.90;;;;;;5071922;28;20064;-76
2021/09/26 05:06:42;;;;;;;10.73;6.63;;;17.00;99.90;;;;;;5071855;28;20052;-77
2021/09/26 05:09:08;;;;;;;8.43;6.93;;;17.10;99.90;;;;;;5072371;28;20087;-77
2021/09/26 05:11:34;;;;;;;9.65;7.13;;;17.10;99.90;;;;;;5071942;28;20144;-77
2021/09/26 05:14:00;;;;;;;7.65;6.85;;;17.30;99.90;;;;;;5070853;28;20371;-77
2021/09/26 05:16:25;;;;;;;10.57;7.05;;;17.20;99.90;;;;;;5071625;28;20024;-76
2021/09/26 05:18:51;;;;;;;9.45;6.75;;;17.20;99.90;;;;;;5071417;28;20032;-77
2021/09/26 05:21:16;;;;;;;9.80;6.90;;;17.20;99.90;;;;;;5071881;28;20036;-77
2021/09/26 05:23:42;;;;;;;6.60;5.78;;;17.30;99.90;;;;;;5073229;28;20523;-77
2021/09/26 05:26:08;;;;;;;9.55;6.82;;;17.30;99.90;;;;;;5070873;28;20138;-77
2021/09/26 05:28:35;;;;;;;11.48;6.55;;;17.40;99.90;;;;;;5071135;28;20551;-75
2021/09/26 05:31:01;;;;;;;7.40;6.45;;;17.40;99.90;;;;;;5071973;28;20025;-75
2021/09/26 05:33:31;;;;;;;7.82;6.60;;;17.40;99.90;;;;;;5072881;28;20366;-76
2021/09/26 05:35:57;;;;;;;11.35;7.55;;;17.40;99.90;;;;;;5072163;28;20025;-76
2021/09/26 05:38:23;;;;;;;11.50;6.88;;;17.50;99.90;;;;;;5073121;28;20078;-76
2021/09/26 05:40:49;;;;;;;8.95;6.53;;;17.50;99.90;;;;;;5072735;28;20033;-76
2021/09/26 05:43:14;;;;;;;9.43;6.93;;;17.50;99.90;;;;;;5070685;28;20382;-76
2021/09/26 05:45:40;;;;;;;8.93;6.05;;;17.50;99.90;;;;;;5072377;28;20059;-76
2021/09/26 05:48:06;;;;;;;9.32;7.28;;;17.50;99.90;;;;;;5072128;28;20439;-76
2021/09/26 05:50:32;;;;;;;8.88;6.72;;;17.60;99.90;;;;;;5071690;28;20024;-75
2021/09/26 05:52:58;;;;;;;9.05;6.80;;;17.60;99.90;;;;;;5071904;28;20415;-77
2021/09/26 05:55:24;;;;;;;7.47;6.65;;;17.60;99.90;;;;;;5071304;28;20056;-76
2021/09/26 05:57:49;;;;;;;12.15;6.72;;;17.60;99.90;;;;;;5071242;28;20028;-76
2021/09/26 06:00:17;;;;;;;10.52;7.70;;;17.70;99.90;;;;;;5072303;28;20493;-77
2021/09/26 06:02:44;;;;;;;9.77;7.28;;;17.70;99.90;;;;;;5070869;28;20028;-75
2021/09/26 06:05:11;;;;;;;10.18;6.18;;;17.60;99.90;;;;;;5070329;28;20148;-76
2021/09/26 06:07:37;;;;;;;10.00;6.75;;;17.60;99.90;;;;;;5072152;28;20036;-76
2021/09/26 06:10:05;;;;;;;8.38;7.03;;;17.60;99.90;;;;;;5071711;28;20104;-77
2021/09/26 06:12:31;;;;;;;8.60;7.20;;;17.70;99.90;;;;;;5070812;28;20090;-77
2021/09/26 06:14:57;;;;;;;10.85;7.00;;;17.80;99.90;;;;;;5070350;28;20036;-78
2021/09/26 06:17:22;;;;;;;11.43;7.32;;;17.90;99.90;;;;;;5070506;28;20111;-77
2021/09/26 06:19:50;;;;;;;9.50;6.85;;;18.00;99.90;;;;;;5071920;28;20020;-76
2021/09/26 06:22:16;;;;;;;9.07;6.50;;;17.90;99.90;;;;;;5069901;28;20232;-75
2021/09/26 06:24:42;;;;;;;8.27;6.55;;;18.10;99.90;;;;;;5070227;28;20148;-76
2021/09/26 06:27:07;;;;;;;6.85;5.82;;;18.20;99.90;;;;;;5069828;28;20044;-76
2021/09/26 06:29:33;;;;;;;8.85;6.15;;;18.30;99.90;;;;;;5070741;28;20065;-76
2021/09/26 06:31:59;;;;;;;12.27;8.25;;;18.30;99.90;;;;;;5070050;28;20024;-76
2021/09/26 06:34:24;;;;;;;8.80;7.15;;;18.20;99.90;;;;;;5070505;28;20182;-77
2021/09/26 06:36:50;;;;;;;12.10;7.88;;;18.10;99.90;;;;;;5071671;28;20025;-76
2021/09/26 06:39:16;;;;;;;10.57;8.23;;;18.30;99.90;;;;;;5069732;28;20052;-76
2021/09/26 06:41:42;;;;;;;13.48;7.72;;;18.40;99.90;;;;;;5070171;28;20029;-76
2021/09/26 06:44:07;;;;;;;10.20;7.80;;;18.30;99.90;;;;;;5069319;28;20373;-77
2021/09/26 06:46:33;;;;;;;8.35;7.28;;;18.40;99.90;;;;;;5069984;28;20509;-77
2021/09/26 06:48:59;;;;;;;10.63;8.52;;;18.60;99.90;;;;;;5069231;28;20475;-77
2021/09/26 06:51:24;;;;;;;13.95;7.63;;;18.80;99.90;;;;;;5071586;28;20069;-77
2021/09/26 06:53:50;;;;;;;15.60;7.82;;;18.80;99.90;;;;;;5071637;28;20504;-75
2021/09/26 06:56:16;;;;;;;14.88;7.97;;;19.10;99.90;;;;;;5068803;28;20035;-76
2021/09/26 06:58:41;;;;;;;11.40;7.55;;;19.50;99.90;;;;;;5071398;28;20103;-76
2021/09/26 07:01:08;;;;;;;8.18;7.38;;;19.50;99.90;;;;;;5069300;28;20033;-76
2021/09/26 07:03:34;;;;;;;13.20;7.53;;;19.70;99.90;;;;;;5069579;28;20106;-76
2021/09/26 07:05:59;;;;;;;12.10;8.57;;;19.90;99.90;;;;;;5068843;28;20426;-77
2021/09/26 07:08:25;;;;;;;15.40;8.00;;;19.90;99.90;;;;;;5069262;28;20025;-75
2021/09/26 07:10:51;;;;;;;12.07;8.15;;;20.20;99.90;;;;;;5070720;28;20062;-76
2021/09/26 07:13:17;;;;;;;10.02;7.70;;;20.10;99.90;;;;;;5068811;28;20367;-75
2021/09/26 07:15:42;;;;;;;11.73;7.45;;;19.70;99.90;;;;;;5071209;28;20033;-76
2021/09/26 07:18:08;;;;;;;8.85;7.15;;;20.20;99.90;;;;;;5070468;28;20028;-76
2021/09/26 07:20:35;;;;;;;8.85;7.45;;;20.70;99.90;;;;;;5069023;28;20025;-76
2021/09/26 07:23:02;;;;;;;11.18;7.35;;;20.70;99.90;;;;;;5068683;28;20047;-77
2021/09/26 07:25:29;;;;;;;12.98;7.18;;;20.70;99.90;;;;;;5070904;28;20511;-76
2021/09/26 07:27:56;;;;;;;8.85;6.93;;;20.50;99.90;;;;;;5069669;28;20028;-76
2021/09/26 07:30:23;;;;;;;14.80;7.85;;;20.60;99.90;;;;;;5070584;28;20075;-77
2021/09/26 07:32:49;;;;;;;11.57;7.20;;;21.20;99.90;;;;;;5070560;28;20056;-76
2021/09/26 07:35:15;;;;;;;10.77;7.60;;;21.40;99.90;;;;;;5068821;28;20036;-75
2021/09/26 07:37:41;;;;;;;12.85;7.72;;;21.40;99.90;;;;;;5071218;28;20437;-77
2021/09/26 07:40:10;;;;;;;9.50;7.72;;;21.00;99.90;;;;;;5068716;28;20056;-76
2021/09/26 07:42:35;;;;;;;10.70;7.43;;;21.10;99.90;;;;;;5069027;28;20032;-76
2021/09/26 07:45:03;;;;;;;10.75;7.35;;;21.40;99.90;;;;;;5068554;28;20056;-77
2021/09/26 07:47:30;;;;;;;11.35;8.48;;;21.80;99.90;;;;;;5069267;28;20082;-76
2021/09/26 07:49:56;;;;;;;10.85;9.75;;;22.30;99.90;;;;;;5070422;28;20032;-76
2021/09/26 07:52:22;;;;;;;13.32;11.20;;;22.40;99.90;;;;;;5068411;28;20517;-76
2021/09/26 07:54:48;;;;;;;11.50;9.98;;;22.00;99.90;;;;;;5071055;28;20055;-77
2021/09/26 07:57:15;;;;;;;12.18;10.43;;;22.20;99.90;;;;;;5068862;28;20459;-65
2021/09/26 07:59:41;;;;;;;10.55;7.03;;;22.00;99.90;;;;;;5068967;28;20101;-48
2021/09/26 08:02:07;;;;;;;10.63;6.82;;;22.40;99.90;;;;;;5053752;28;20028;-55
2021/09/26 08:04:33;;;;;;;6.75;5.70;;;22.90;99.90;;;;;;5088621;28;20488;-51
2021/09/26 08:06:59;;;;;;;9.45;8.43;;;23.30;99.90;;;;;;5087993;28;20111;-50
2021/09/26 08:09:25;;;;;;;9.45;7.28;;;23.10;99.90;;;;;;5085606;28;20036;-50
2021/09/26 08:11:51;;;;;;;11.55;9.38;;;23.10;99.90;;;;;;5093595;28;20439;-53
2021/09/26 08:14:17;;;;;;;12.23;9.35;;;23.00;99.90;;;;;;5090275;28;20073;-49
2021/09/26 08:16:44;;;;;;;8.82;7.57;;;23.50;99.90;;;;;;5093258;28;20106;-49
2021/09/26 08:19:10;;;;;;;14.70;10.70;;;23.70;99.90;;;;;;5092998;28;20111;-49
2021/09/26 08:21:35;;;;;;;13.73;9.95;;;23.70;99.90;;;;;;5092134;28;20140;-48
2021/09/26 08:24:01;;;;;;;14.15;8.77;;;23.80;99.90;;;;;;5092888;28;20032;-48
2021/09/26 08:26:27;;;;;;;17.35;9.65;;;24.00;99.90;;;;;;5090928;28;20058;-49
2021/09/26 08:28:53;;;;;;;11.90;9.10;;;24.10;99.90;;;;;;5092674;28;20032;-52
2021/09/26 08:31:18;;;;;;;10.27;9.18;;;24.50;99.90;;;;;;5089490;28;20035;-49
2021/09/26 08:33:44;;;;;;;12.52;7.75;;;24.20;99.90;;;;;;5087199;28;20037;-48
2021/09/26 08:36:10;;;;;;;11.05;8.48;;;24.20;99.90;;;;;;5087172;28;20462;-48
2021/09/26 08:38:35;;;;;;;11.23;7.88;;;24.20;99.90;;;;;;5072182;28;20031;-49
2021/09/26 08:41:02;;;;;;;13.90;9.00;;;24.10;99.90;;;;;;5087971;28;20024;-48
2021/09/26 08:43:28;;;;;;;17.45;9.00;;;23.90;99.90;;;;;;5090962;28;20180;-47
2021/09/26 08:45:56;;;;;;;8.75;7.85;;;24.30;99.90;;;;;;5091285;28;20056;-48
2021/09/26 08:48:22;;;;;;;10.80;8.52;;;24.60;99.90;;;;;;5091344;28;20337;-48
2021/09/26 08:50:48;;;;;;;10.55;7.57;;;24.30;99.90;;;;;;5091842;28;20521;-49
2021/09/26 08:53:14;;;;;;;13.20;8.65;;;24.60;99.90;;;;;;5089926;28;20020;-48
2021/09/26 08:55:39;;;;;;;7.85;7.07;;;24.60;99.90;;;;;;5091060;28;20469;-47
2021/09/26 08:58:05;;;;;;;14.13;8.65;;;24.70;99.90;;;;;;5092362;28;20465;-47
2021/09/26 09:00:31;;;;;;;12.50;8.50;;;25.20;99.90;;;;;;5093232;28;20072;-48
2021/09/26 09:02:58;;;;;;;8.82;7.20;;;25.30;99.80;;;;;;5074850;28;20024;-49
2021/09/26 09:05:32;;;;;;;13.93;8.43;;;25.40;99.70;;;;;;5090401;28;20120;-49
2021/09/26 09:08:17;;;;;;;12.00;8.13;;;25.70;99.40;;;;;;5091216;28;20079;-49
2021/09/26 09:10:51;;;;;;;11.77;8.45;;;25.80;99.10;;;;;;5090944;28;20032;-49
2021/09/26 09:13:26;;;;;;;8.93;6.80;;;25.60;99.30;;;;;;5090418;28;20032;-48
2021/09/26 09:15:55;;;;;;;12.57;8.30;;;25.10;99.60;;;;;;5085834;28;20028;-50
2021/09/26 09:18:21;;;;;;;8.25;7.30;;;24.80;99.90;;;;;;5090371;28;20028;-49
2021/09/26 09:20:47;;;;;;;9.45;7.38;;;24.80;99.90;;;;;;5091780;28;20051;-49
2021/09/26 09:23:20;;;;;;;10.95;7.15;;;24.60;99.90;;;;;;5091621;28;20107;-49
2021/09/26 09:25:48;;;;;;;7.57;6.72;;;24.40;99.90;;;;;;5091851;28;20052;-48
2021/09/26 09:28:27;;;;;;;8.95;7.85;;;24.70;99.90;;;;;;5090197;28;20024;-48
2021/09/26 09:31:01;;;;;;;10.43;6.50;;;24.70;99.90;;;;;;5086710;28;20095;-49
2021/09/26 09:33:44;;;;;;;9.10;7.15;;;24.30;99.90;;;;;;5070202;28;20387;-48
2021/09/26 09:36:35;;;;;;;7.35;6.60;;;24.40;99.90;;;;;;5070856;28;20028;-48
2021/09/26 09:39:08;;;;;;;9.95;6.63;;;24.40;99.90;;;;;;5069169;28;20063;-48
2021/09/26 09:41:38;;;;;;;8.93;7.38;;;24.40;99.90;;;;;;5071810;28;20031;-48
2021/09/26 09:44:06;;;;;;;14.48;7.15;;;24.40;99.90;;;;;;5069915;28;20041;-55
2021/09/26 09:46:40;;;;;;;11.35;6.88;;;24.30;99.90;;;;;;5102990;28;20032;-48
2021/09/26 09:49:17;;;;;;;8.95;6.88;;;24.10;99.90;;;;;;5109379;28;20028;-55
2021/09/26 09:51:55;;;;;;;7.40;6.03;;;24.30;99.90;;;;;;5090295;28;20047;-48
2021/09/26 09:54:35;;;;;;;8.70;7.10;;;24.20;99.90;;;;;;5091902;28;20043;-48
2021/09/26 09:57:15;;;;;;;9.45;6.55;;;24.10;99.90;;;;;;5092036;28;20099;-47
2021/09/26 09:59:45;;;;;;;9.10;5.82;;;24.00;99.90;;;;;;5091253;28;20377;-47
2021/09/26 10:02:11;;;;;;;7.10;5.97;;;24.00;99.90;;;;;;5088883;28;20020;-49
2021/09/26 10:04:45;;;;;;;8.55;7.13;;;23.90;99.90;;;;;;5088238;28;20032;-48
2021/09/26 10:07:22;;;;;;;12.23;6.50;;;23.70;99.90;;;;;;5088420;28;20028;-48
2021/09/26 10:09:49;;;;;;;7.70;5.03;;;23.50;99.90;;;;;;5091057;28;20433;-48
2021/09/26 10:12:23;;;;;;;11.70;5.85;;;23.50;99.90;;;;;;5089946;28;20429;-50
2021/09/26 10:14:55;;;;;;;11.15;6.22;;;23.60;99.90;;;;;;5095482;28;20027;-49
2021/09/26 10:17:21;;;;;;;8.25;5.30;;;23.40;99.90;;;;;;5110327;28;20030;-49
2021/09/26 10:19:47;;;;;;;7.15;5.43;;;23.50;99.90;;;;;;5110739;27;20028;-48
2021/09/26 10:22:16;;;;;;;9.63;5.43;;;23.40;99.90;;;;;;5108656;28;20476;-48
2021/09/26 10:24:51;;;;;;;6.43;4.88;;;23.30;99.90;;;;;;5111095;28;20454;-48
2021/09/26 10:27:23;;;;;;;10.05;5.43;;;23.20;99.90;;;;;;5110475;28;20378;-48
2021/09/26 10:29:59;;;;;;;6.90;5.45;;;23.20;99.90;;;;;;5101222;28;20353;-49
2021/09/26 10:32:25;;;;;;;7.88;5.95;;;23.20;99.90;;;;;;5089420;28;20078;-50
2021/09/26 10:34:51;;;;;;;11.18;6.63;;;23.20;99.90;;;;;;5090740;28;20028;-48
2021/09/26 10:37:17;;;;;;;7.93;6.32;;;23.00;99.90;;;;;;5090514;28;20221;-48
2021/09/26 10:39:43;;;;;;;10.55;5.57;;;23.00;99.90;;;;;;5072705;28;20484;-48
2021/09/26 10:42:15;;;;;;;10.02;6.20;;;23.00;99.90;;;;;;5090129;28;20036;-49
2021/09/26 10:44:48;;;;;;;10.05;6.45;;;23.00;99.90;;;;;;5088586;28;20078;-48
2021/09/26 10:47:22;;;;;;;7.72;4.80;;;23.00;99.90;;;;;;5088472;28;20040;-49
2021/09/26 10:49:53;;;;;;;6.43;4.80;;;23.20;99.90;;;;;;5090599;28;20032;-48
2021/09/26 10:52:26;;;;;;;8.63;5.90;;;23.30;99.90;;;;;;5088617;28;20158;-47
2021/09/26 10:54:53;;;;;;;11.88;6.20;;;22.90;99.90;;;;;;5090837;28;20063;-48
2021/09/26 10:57:29;;;;;;;12.18;6.15;;;22.70;99.90;;;;;;5089440;28;20050;-56
2021/09/26 10:59:59;;;;;;;6.93;5.53;;;22.70;99.90;;;;;;5089014;28;20023;-47
2021/09/26 11:02:25;;;;;;;7.17;5.80;;;22.80;99.90;;;;;;5088925;28;20036;-49
2021/09/26 11:04:53;;;;;;;8.35;6.05;;;22.90;99.90;;;;;;5089758;28;20102;-48
2021/09/26 11:07:21;;;;;;;6.78;5.10;;;22.70;99.90;;;;;;5086904;28;20458;-49
2021/09/26 11:10:05;;;;;;;8.43;6.30;;;22.70;99.90;;;;;;5074477;28;20103;-50
2021/09/26 11:12:50;;;;;;;7.57;4.60;;;22.60;99.90;;;;;;5067635;28;20029;-49
2021/09/26 11:15:21;;;;;;;6.53;5.22;;;22.70;99.90;;;;;;5082595;28;20028;-49
2021/09/26 11:17:54;;;;;;;;;;;22.60;99.90;;;;;;5088879;28;20060;-49
2021/09/26 11:20:26;;;;;;;7.85;5.63;;;22.60;99.90;;;;;;5086729;28;20369;-49
2021/09/26 11:23:03;;;;;;;13.35;6.88;;;22.60;99.90;;;;;;5086908;28;20030;-49
2021/09/26 11:25:55;;;;;;;13.90;6.68;;;22.40;99.90;;;;;;5101520;28;20153;-48
2021/09/26 11:28:30;;;;;;;6.88;5.50;;;22.50;99.90;;;;;;5075282;28;20472;-48
2021/09/26 11:30:57;;;;;;;10.88;6.20;;;22.60;99.90;;;;;;5087423;28;20377;-48
2021/09/26 11:33:24;;;;;;;9.13;6.97;;;22.70;99.90;;;;;;5087405;28;20127;-49
2021/09/26 11:35:50;;;;;;;7.72;5.97;;;22.70;99.90;;;;;;5087969;28;20036;-48
2021/09/26 11:38:20;;;;;;;11.80;7.80;;;22.70;99.90;;;;;;5087108;28;20492;-48
2021/09/26 11:40:52;;;;;;;8.73;7.13;;;22.60;99.90;;;;;;5088942;28;20410;-48
2021/09/26 11:43:23;;;;;;;11.98;7.07;;;22.60;99.90;;;;;;5089623;28;20028;-47
2021/09/26 11:45:50;;;;;;;12.93;6.57;;;22.60;99.90;;;;;;5095663;28;20027;-48
2021/09/26 11:48:16;;;;;;;9.23;6.78;;;22.70;99.90;;;;;;5093577;28;20107;-48
2021/09/26 11:50:45;;;;;;;10.10;6.63;;;22.60;99.90;;;;;;5094163;28;20173;-48
2021/09/26 11:58:20;;;;;;;11.27;6.63;;;22.60;99.90;;;;;;5273473;22;20131;-48
2021/09/26 12:00:47;;;;;;;14.35;7.28;;;22.70;99.90;;;;;;5013105;28;20033;-49
2021/09/26 12:03:13;;;;;;;11.55;7.45;;;22.70;99.90;;;;;;5012897;28;20505;-49
2021/09/26 12:05:41;;;;;;;11.50;7.97;;;22.80;99.90;;;;;;5007417;28;20037;-48
2021/09/26 12:08:07;;;;;;;10.20;7.18;;;22.80;99.90;;;;;;4995179;28;20034;-47
2021/09/26 12:10:34;;;;;;;7.53;6.63;;;22.70;99.90;;;;;;4994752;28;20109;-47
2021/09/26 12:13:14;;;;;;;12.88;7.97;;;22.60;99.90;;;;;;4993464;28;20109;-49
2021/09/26 12:15:40;;;;;;;9.88;7.80;;;22.60;99.90;;;;;;5003461;28;20046;-47
2021/09/26 12:18:07;;;;;;;11.15;7.72;;;22.50;99.90;;;;;;4993381;28;20421;-49
2021/09/26 12:20:32;;;;;;;8.13;6.93;;;22.40;99.90;;;;;;5008833;28;20026;-47
2021/09/26 12:23:02;;;;;;;12.60;8.02;;;22.40;99.90;;;;;;5012923;28;20378;-48
2021/09/26 12:25:35;;;;;;;9.35;8.38;;;22.30;99.90;;;;;;5011055;28;20034;-48
2021/09/26 12:28:06;;;;;;;13.75;7.72;;;22.20;99.90;;;;;;5011004;28;20109;-53
2021/09/26 12:30:52;;;;;;;;;;;22.20;99.90;;;;;;5013585;28;20474;-54
2021/09/26 12:33:25;;;;;;;6.65;5.93;;;22.20;99.90;;;;;;5011488;28;19912;-53
2021/09/26 12:36:01;;;;;;;12.45;6.68;;;22.30;99.90;;;;;;5008767;28;20104;-52
2021/09/26 12:38:50;;;;;;;11.07;7.13;;;22.40;99.90;;;;;;5000258;28;20105;-54
2021/09/26 12:41:19;;;;;;;7.78;6.70;;;22.50;99.90;;;;;;5001105;28;20034;-52
2021/09/26 12:43:55;;;;;;;8.65;6.20;;;22.60;99.90;;;;;;5000634;28;20022;-55
2021/09/26 12:46:28;;;;;;;8.48;6.78;;;22.70;99.90;;;;;;5002563;28;20044;-57
2021/09/26 12:48:55;;;;;;;7.57;6.22;;;22.70;99.90;;;;;;5001294;28;20038;-53
2021/09/26 12:51:31;;;;;;;10.55;5.75;;;23.00;99.90;;;;;;5015252;28;20112;-52
2021/09/26 12:54:00;;;;;;;6.75;5.82;;;23.20;99.90;;;;;;5013062;28;20037;-53
2021/09/26 12:56:28;;;;;;;6.88;5.35;;;23.30;99.90;;;;;;5013113;28;20439;-52